createdAt,value
2023-09-27T00:00:59.078Z,8.85
2023-09-27T00:03:25.632Z,9.68
2023-09-27T00:05:52.241Z,12.05
2023-09-27T00:08:18.719Z,8.15
2023-09-27T00:10:45.135Z,12.00
2023-09-27T00:13:11.884Z,12.98
2023-09-27T00:15:38.570Z,8.82
2023-09-27T00:18:05.849Z,6.72
2023-09-27T00:20:33.460Z,9.32
2023-09-27T00:22:59.957Z,7.45
2023-09-27T00:25:26.392Z,8.25
2023-09-27T00:27:52.815Z,8.25
2023-09-27T00:30:19.269Z,9.40
2023-09-27T00:32:46.338Z,9.57
2023-09-27T00:35:20.027Z,8.13
2023-09-27T00:37:47.895Z,12.75
2023-09-27T00:40:16.102Z,10.30
2023-09-27T00:42:42.541Z,11.07
2023-09-27T00:45:09.365Z,8.88
2023-09-27T00:47:38.313Z,9.38
2023-09-27T00:50:08.498Z,10.80
2023-09-27T00:52:35.197Z,9.80
2023-09-27T00:55:01.960Z,10.52
2023-09-27T00:57:28.495Z,8.55
2023-09-27T00:59:55.419Z,9.93
2023-09-27T01:02:22.166Z,10.23
2023-09-27T01:04:49.313Z,10.63
2023-09-27T01:07:16.030Z,13.00
2023-09-27T01:09:42.642Z,11.45
2023-09-27T01:12:09.065Z,10.85
2023-09-27T01:14:36.146Z,12.77
2023-09-27T01:17:10.654Z,12.73
2023-09-27T01:19:38.271Z,11.90
2023-09-27T01:22:05.756Z,13.35
2023-09-27T01:24:37.428Z,10.18
2023-09-27T01:27:06.634Z,14.63
2023-09-27T01:29:34.285Z,16.67
2023-09-27T01:32:00.786Z,12.07
2023-09-27T01:34:27.321Z,13.85
2023-09-27T01:36:54.904Z,14.35
2023-09-27T01:39:21.425Z,13.10
2023-09-27T01:41:47.786Z,12.98
2023-09-27T01:44:14.324Z,11.65
2023-09-27T01:46:40.816Z,11.02
2023-09-27T01:49:07.805Z,13.68
2023-09-27T01:51:34.242Z,13.70
2023-09-27T01:54:00.627Z,13.93
2023-09-27T01:56:27.232Z,11.88
2023-09-27T01:58:53.898Z,10.18
2023-09-27T02:01:20.607Z,13.02
2023-09-27T02:03:47.205Z,9.70
2023-09-27T02:06:13.644Z,12.38
2023-09-27T02:08:40.038Z,12.07
2023-09-27T02:11:06.509Z,9.52
2023-09-27T02:13:32.910Z,10.40
2023-09-27T02:15:59.309Z,10.40
2023-09-27T02:18:25.928Z,11.50
2023-09-27T02:20:52.293Z,12.80
2023-09-27T02:23:18.946Z,13.88
2023-09-27T02:25:45.508Z,11.35
2023-09-27T02:28:11.902Z,10.30
2023-09-27T02:30:39.291Z,13.27
2023-09-27T02:33:05.731Z,11.40
2023-09-27T02:35:32.220Z,11.75
2023-09-27T02:37:58.846Z,13.80
2023-09-27T02:40:25.271Z,13.02
2023-09-27T02:42:51.683Z,13.38
2023-09-27T02:45:18.170Z,12.68
2023-09-27T02:47:45.433Z,11.63
2023-09-27T02:50:13.134Z,8.48
2023-09-27T02:52:39.944Z,16.17
2023-09-27T02:55:10.386Z,8.75
2023-09-27T02:57:37.602Z,11.80
2023-09-27T03:00:04.894Z,11.10
2023-09-27T03:02:34.862Z,10.25
2023-09-27T03:05:04.243Z,8.85
2023-09-27T03:07:30.685Z,9.02
2023-09-27T03:09:59.641Z,11.50
2023-09-27T03:12:26.096Z,7.97
2023-09-27T03:14:52.578Z,11.32
2023-09-27T03:17:19.003Z,12.68
2023-09-27T03:19:47.295Z,13.57
2023-09-27T03:22:13.686Z,13.52
2023-09-27T03:24:40.218Z,16.17
2023-09-27T03:27:09.592Z,15.52
2023-09-27T03:29:36.527Z,17.08
2023-09-27T03:32:03.454Z,19.05
2023-09-27T03:34:32.632Z,19.35
2023-09-27T03:36:59.097Z,18.00
2023-09-27T03:39:26.329Z,21.58
2023-09-27T03:41:52.859Z,23.63
2023-09-27T03:44:19.897Z,21.25
2023-09-27T03:46:47.811Z,22.20
2023-09-27T03:49:14.312Z,25.25
2023-09-27T03:51:40.742Z,23.75
2023-09-27T03:54:07.362Z,24.25
2023-09-27T03:56:33.763Z,22.13
2023-09-27T03:59:00.326Z,23.73
2023-09-27T04:01:26.783Z,20.65
2023-09-27T04:03:53.355Z,22.55
2023-09-27T04:06:20.217Z,26.27
2023-09-27T04:08:46.674Z,21.40
2023-09-27T04:11:13.099Z,19.70
2023-09-27T04:13:39.566Z,21.27
2023-09-27T04:16:06.026Z,21.77
2023-09-27T04:18:33.447Z,24.67
2023-09-27T04:21:09.401Z,26.30
2023-09-27T04:23:37.287Z,26.15
2023-09-27T04:26:07.059Z,22.98
2023-09-27T04:28:34.653Z,20.60
2023-09-27T04:31:01.955Z,25.05
2023-09-27T04:33:28.496Z,21.83
2023-09-27T04:35:54.937Z,21.58
2023-09-27T04:38:22.234Z,21.42
2023-09-27T04:40:48.856Z,19.00
2023-09-27T04:43:15.219Z,19.73
2023-09-27T04:45:41.676Z,19.85
2023-09-27T04:48:08.277Z,23.60
2023-09-27T04:50:35.758Z,19.30
2023-09-27T04:53:02.250Z,23.25
2023-09-27T04:55:29.499Z,19.38
2023-09-27T04:57:55.948Z,15.60
2023-09-27T05:00:23.482Z,20.13
2023-09-27T05:02:52.925Z,16.52
2023-09-27T05:05:19.898Z,20.35
2023-09-27T05:07:46.512Z,18.35
2023-09-27T05:10:13.590Z,19.58
2023-09-27T05:12:40.722Z,24.30
2023-09-27T05:15:08.847Z,18.33
2023-09-27T05:17:35.330Z,19.23
2023-09-27T05:20:02.394Z,17.38
2023-09-27T05:22:28.909Z,18.05
2023-09-27T05:24:55.554Z,20.42
2023-09-27T05:27:21.948Z,20.52
2023-09-27T05:29:48.712Z,17.50
2023-09-27T05:32:15.124Z,18.80
2023-09-27T05:34:41.478Z,15.98
2023-09-27T05:37:07.962Z,16.58
2023-09-27T05:39:34.336Z,18.63
2023-09-27T05:42:00.858Z,17.50
2023-09-27T05:44:27.397Z,20.02
2023-09-27T05:46:55.428Z,17.45
2023-09-27T05:49:22.007Z,16.10
2023-09-27T05:51:48.401Z,18.85
2023-09-27T05:54:14.847Z,19.42
2023-09-27T05:56:44.593Z,17.92
2023-09-27T05:59:12.652Z,19.52
2023-09-27T06:01:40.355Z,19.88
2023-09-27T06:04:08.378Z,20.30
2023-09-27T06:06:35.655Z,18.85
2023-09-27T06:09:02.030Z,17.40
2023-09-27T06:11:28.451Z,15.63
2023-09-27T06:13:55.405Z,15.05
2023-09-27T06:16:22.833Z,19.65
2023-09-27T06:18:49.447Z,14.50
2023-09-27T06:21:15.856Z,14.25
2023-09-27T06:23:42.567Z,13.70
2023-09-27T06:26:09.867Z,15.73
2023-09-27T06:28:39.103Z,15.75
2023-09-27T06:31:07.258Z,14.93
2023-09-27T06:33:35.387Z,20.30
2023-09-27T06:36:01.798Z,15.07
2023-09-27T06:38:28.189Z,18.17
2023-09-27T06:40:55.939Z,18.92
2023-09-27T06:43:22.451Z,15.15
2023-09-27T06:45:50.172Z,14.43
2023-09-27T06:48:19.751Z,14.23
2023-09-27T06:50:47.825Z,17.45
2023-09-27T06:53:23.551Z,13.77
2023-09-27T06:55:53.479Z,18.83
2023-09-27T06:58:24.273Z,17.92
2023-09-27T07:00:52.508Z,15.88
2023-09-27T07:03:20.661Z,16.27
2023-09-27T07:05:48.065Z,14.27
2023-09-27T07:08:15.037Z,15.60
2023-09-27T07:10:41.933Z,16.70
2023-09-27T07:13:08.344Z,12.60
2023-09-27T07:15:34.857Z,15.65
2023-09-27T07:18:01.454Z,15.73
2023-09-27T07:20:34.286Z,18.70
2023-09-27T07:23:05.025Z,13.20
2023-09-27T07:25:35.543Z,13.75
2023-09-27T07:28:04.412Z,13.93
2023-09-27T07:30:31.156Z,13.65
2023-09-27T07:32:58.056Z,15.63
2023-09-27T07:35:25.787Z,14.73
2023-09-27T07:37:52.320Z,18.00
2023-09-27T07:40:18.738Z,16.95
2023-09-27T07:42:46.198Z,14.52
2023-09-27T07:45:29.063Z,14.82
2023-09-27T07:47:55.938Z,15.07
2023-09-27T07:50:28.892Z,12.02
2023-09-27T07:52:56.120Z,13.02
2023-09-27T07:55:22.694Z,17.85
2023-09-27T07:57:50.776Z,17.27
2023-09-27T08:00:18.484Z,12.65
2023-09-27T08:02:46.377Z,14.25
2023-09-27T08:05:15.222Z,17.50
2023-09-27T08:07:41.753Z,14.73
2023-09-27T08:10:21.164Z,15.07
2023-09-27T08:12:48.627Z,14.45
2023-09-27T08:15:15.797Z,15.93
2023-09-27T08:17:43.138Z,14.13
2023-09-27T08:20:13.244Z,15.63
2023-09-27T08:22:40.825Z,16.77
2023-09-27T08:25:15.933Z,15.43
2023-09-27T08:27:44.146Z,10.63
2023-09-27T08:30:12.738Z,14.43
2023-09-27T08:32:39.918Z,14.02
2023-09-27T08:35:08.118Z,17.13
2023-09-27T08:37:35.143Z,14.05
2023-09-27T08:40:02.106Z,13.57
2023-09-27T08:42:32.561Z,9.98
2023-09-27T08:45:00.946Z,13.40
2023-09-27T08:47:29.127Z,19.88
2023-09-27T08:49:58.618Z,13.50
2023-09-27T08:52:28.213Z,9.70
2023-09-27T08:54:54.819Z,15.77
2023-09-27T08:57:24.546Z,12.77
2023-09-27T08:59:51.039Z,10.20
2023-09-27T09:02:18.027Z,14.23
2023-09-27T09:04:45.035Z,10.55
2023-09-27T09:07:12.989Z,11.13
2023-09-27T09:09:41.641Z,12.73
2023-09-27T09:12:10.742Z,12.88
2023-09-27T09:14:50.514Z,11.75
2023-09-27T09:17:20.665Z,12.98
2023-09-27T09:20:33.229Z,13.85
2023-09-27T09:23:04.694Z,13.80
2023-09-27T09:25:31.199Z,17.60
2023-09-27T09:28:10.939Z,13.63
2023-09-27T09:30:38.861Z,13.18
2023-09-27T09:33:10.576Z,13.23
2023-09-27T09:35:37.790Z,12.45
2023-09-27T09:38:04.538Z,12.00
2023-09-27T09:40:32.790Z,11.65
2023-09-27T09:43:01.233Z,11.88
2023-09-27T09:45:29.919Z,12.40
2023-09-27T09:47:57.602Z,7.55
2023-09-27T09:50:24.467Z,11.75
2023-09-27T09:52:58.641Z,9.95
2023-09-27T09:55:45.622Z,11.52
2023-09-27T09:58:38.700Z,11.32
2023-09-27T10:01:05.708Z,10.35
2023-09-27T10:03:34.958Z,10.15
2023-09-27T10:06:03.194Z,11.60
2023-09-27T10:08:36.389Z,9.93
2023-09-27T10:11:22.890Z,8.52
2023-09-27T10:13:49.553Z,9.40
2023-09-27T10:16:17.678Z,10.02
2023-09-27T10:18:44.133Z,10.43
2023-09-27T10:21:13.838Z,10.65
2023-09-27T10:23:49.332Z,10.88
2023-09-27T10:26:28.362Z,8.02
2023-09-27T10:29:04.643Z,10.82
2023-09-27T10:31:39.251Z,10.07
2023-09-27T10:34:28.692Z,7.20
2023-09-27T10:37:15.082Z,9.65
2023-09-27T10:40:21.888Z,7.45
2023-09-27T10:42:49.140Z,10.05
2023-09-27T10:45:17.525Z,7.78
2023-09-27T10:47:44.648Z,7.95
2023-09-27T10:50:11.954Z,11.88
2023-09-27T10:52:40.110Z,7.07
2023-09-27T10:55:11.215Z,8.32
2023-09-27T10:57:39.849Z,8.40
2023-09-27T11:00:10.912Z,8.57
2023-09-27T11:05:04.611Z,10.15
2023-09-27T11:07:48.272Z,12.70
2023-09-27T11:10:34.117Z,9.80
2023-09-27T11:13:07.864Z,12.77
2023-09-27T11:15:34.340Z,9.75
2023-09-27T11:18:00.959Z,8.23
2023-09-27T11:20:27.564Z,8.52
2023-09-27T11:22:59.475Z,9.07
2023-09-27T11:25:27.834Z,7.45
2023-09-27T11:27:54.604Z,8.55
2023-09-27T11:30:29.182Z,8.65
2023-09-27T11:32:56.287Z,9.35
2023-09-27T11:35:25.567Z,8.95
2023-09-27T11:38:14.155Z,11.05
2023-09-27T11:40:44.924Z,6.55
2023-09-27T11:43:13.341Z,9.07
2023-09-27T11:45:48.433Z,7.05
2023-09-27T11:48:16.277Z,4.95
2023-09-27T11:50:43.441Z,6.43
2023-09-27T11:53:10.243Z,5.63
2023-09-27T11:55:36.827Z,6.38
2023-09-27T11:58:03.737Z,6.60
2023-09-27T12:00:30.259Z,5.93
2023-09-27T12:02:58.116Z,5.20
2023-09-27T12:05:26.455Z,4.82
2023-09-27T12:07:54.031Z,7.35
2023-09-27T12:10:20.644Z,7.05
2023-09-27T12:12:47.195Z,7.68
2023-09-27T12:15:13.563Z,6.97
2023-09-27T12:17:40.142Z,7.90
2023-09-27T12:20:09.285Z,6.13
2023-09-27T12:22:40.374Z,6.93
2023-09-27T12:25:07.786Z,8.25
2023-09-27T12:27:34.923Z,7.95
2023-09-27T12:30:01.765Z,7.80
2023-09-27T12:32:28.263Z,6.65
2023-09-27T12:34:54.921Z,7.95
2023-09-27T12:37:23.020Z,8.65
2023-09-27T12:39:49.738Z,7.35
2023-09-27T12:42:16.130Z,5.18
2023-09-27T12:44:42.715Z,7.95
2023-09-27T12:47:09.222Z,7.35
2023-09-27T12:49:36.762Z,5.85
2023-09-27T12:52:03.894Z,5.78
2023-09-27T12:54:31.024Z,6.85
2023-09-27T12:56:58.967Z,9.50
2023-09-27T12:59:27.035Z,7.72
2023-09-27T13:01:53.917Z,6.43
2023-09-27T13:04:20.438Z,4.00
2023-09-27T13:06:46.958Z,6.78
2023-09-27T13:09:14.016Z,5.50
2023-09-27T13:11:40.832Z,7.53
2023-09-27T13:14:07.300Z,5.47
2023-09-27T13:16:33.722Z,6.85
2023-09-27T13:19:00.217Z,4.80
2023-09-27T13:21:28.100Z,8.18
2023-09-27T13:23:54.517Z,9.35
2023-09-27T13:26:21.116Z,11.27
2023-09-27T13:28:47.645Z,8.13
2023-09-27T13:31:14.099Z,9.07
2023-09-27T13:33:41.547Z,7.60
2023-09-27T13:36:09.567Z,6.35
2023-09-27T13:38:38.460Z,7.85
2023-09-27T13:41:05.107Z,6.97
2023-09-27T13:43:33.665Z,5.43
2023-09-27T13:46:00.155Z,7.03
2023-09-27T13:48:26.621Z,7.25
2023-09-27T13:50:53.264Z,8.43
2023-09-27T13:53:19.693Z,11.52
2023-09-27T13:55:46.197Z,7.38
2023-09-27T13:58:12.691Z,7.53
2023-09-27T14:00:39.189Z,6.75
2023-09-27T14:03:05.763Z,6.53
2023-09-27T14:05:32.618Z,6.00
2023-09-27T14:07:59.110Z,7.10
2023-09-27T14:10:25.750Z,11.93
2023-09-27T14:12:52.555Z,8.45
2023-09-27T14:15:20.328Z,5.60
2023-09-27T14:17:46.847Z,7.63
2023-09-27T14:20:18.048Z,6.72
2023-09-27T14:22:45.907Z,6.32
2023-09-27T14:25:13.591Z,7.68
2023-09-27T14:27:40.027Z,6.70
2023-09-27T14:30:07.228Z,7.18
2023-09-27T14:32:33.727Z,6.40
2023-09-27T14:35:00.385Z,5.05
2023-09-27T14:37:27.422Z,8.27
2023-09-27T14:39:54.059Z,8.85
2023-09-27T14:42:21.889Z,8.95
2023-09-27T14:44:48.790Z,9.13
2023-09-27T14:47:15.505Z,7.13
2023-09-27T14:49:42.169Z,7.35
2023-09-27T14:52:09.292Z,7.47
2023-09-27T14:54:35.716Z,6.32
2023-09-27T14:59:43.159Z,5.45
2023-09-27T15:02:10.368Z,5.13
2023-09-27T15:04:36.936Z,10.57
2023-09-27T15:07:03.988Z,4.97
2023-09-27T15:09:30.400Z,5.05
2023-09-27T15:11:56.810Z,7.70
2023-09-27T15:14:23.290Z,7.88
2023-09-27T15:16:49.694Z,8.63
2023-09-27T15:19:16.146Z,5.63
2023-09-27T15:21:42.540Z,9.75
2023-09-27T15:24:09.000Z,7.53
2023-09-27T15:26:35.412Z,6.13
2023-09-27T15:29:01.893Z,6.72
2023-09-27T15:31:29.563Z,5.85
2023-09-27T15:33:57.107Z,4.65
2023-09-27T15:36:24.065Z,6.13
2023-09-27T15:38:50.546Z,7.10
2023-09-27T15:41:20.725Z,6.95
2023-09-27T15:43:49.044Z,5.05
2023-09-27T15:46:16.870Z,6.15
2023-09-27T15:48:44.382Z,6.22
2023-09-27T15:51:12.687Z,5.10
2023-09-27T15:53:40.341Z,5.90
2023-09-27T15:56:08.682Z,6.25
2023-09-27T15:58:35.110Z,5.20
2023-09-27T16:01:06.124Z,6.00
2023-09-27T16:03:32.963Z,7.57
2023-09-27T16:06:01.642Z,10.73
2023-09-27T16:08:28.611Z,7.00
2023-09-27T16:10:57.405Z,6.43
2023-09-27T16:13:24.239Z,8.73
2023-09-27T16:15:52.588Z,7.63
2023-09-27T16:18:20.443Z,7.50
2023-09-27T16:20:47.856Z,7.78
2023-09-27T16:23:15.141Z,6.30
2023-09-27T16:25:42.108Z,10.30
2023-09-27T16:28:08.689Z,9.27
2023-09-27T16:30:36.445Z,9.02
2023-09-27T16:33:05.437Z,8.98
2023-09-27T16:35:36.721Z,8.55
2023-09-27T16:38:03.500Z,7.88
2023-09-27T16:40:30.251Z,6.25
2023-09-27T16:42:56.645Z,7.55
2023-09-27T16:45:23.112Z,7.63
2023-09-27T16:47:49.495Z,11.38
2023-09-27T16:50:15.938Z,6.18
2023-09-27T16:52:42.340Z,27.20
2023-09-27T16:55:09.743Z,8.65
2023-09-27T16:57:39.598Z,6.93
2023-09-27T17:00:11.245Z,7.60
2023-09-27T17:02:39.104Z,7.82
2023-09-27T17:05:06.803Z,9.85
2023-09-27T17:07:35.028Z,9.63
2023-09-27T17:10:02.891Z,7.70
2023-09-27T17:12:29.313Z,8.75
2023-09-27T17:14:56.018Z,8.40
2023-09-27T17:17:22.445Z,8.60
2023-09-27T17:19:49.780Z,8.55
2023-09-27T17:22:16.414Z,11.23
2023-09-27T17:24:44.006Z,10.77
2023-09-27T17:29:54.438Z,7.05
2023-09-27T17:32:20.938Z,8.38
2023-09-27T17:34:47.416Z,9.38
2023-09-27T17:37:13.818Z,11.00
2023-09-27T17:39:40.433Z,11.00
2023-09-27T17:42:06.895Z,11.23
2023-09-27T17:44:33.394Z,10.73
2023-09-27T17:46:59.928Z,8.23
2023-09-27T17:49:27.179Z,7.53
2023-09-27T17:51:55.645Z,8.00
2023-09-27T17:54:22.703Z,9.52
2023-09-27T17:56:51.328Z,10.95
2023-09-27T17:59:19.330Z,7.22
2023-09-27T18:01:45.917Z,10.98
2023-09-27T18:04:12.423Z,9.55
2023-09-27T18:06:39.068Z,11.60
2023-09-27T18:09:05.998Z,10.77
2023-09-27T18:11:32.378Z,7.88
2023-09-27T18:13:58.994Z,10.10
2023-09-27T18:16:26.666Z,7.10
2023-09-27T18:18:55.178Z,7.22
2023-09-27T18:21:22.066Z,7.93
2023-09-27T18:23:50.131Z,10.10
2023-09-27T18:26:17.823Z,9.00
2023-09-27T18:28:44.968Z,7.55
2023-09-27T18:31:12.613Z,12.90
2023-09-27T18:33:39.420Z,11.27
2023-09-27T18:36:06.033Z,8.48
2023-09-27T18:38:32.829Z,8.10
2023-09-27T18:40:59.485Z,9.10
2023-09-27T18:43:26.107Z,11.43
2023-09-27T18:45:52.813Z,11.30
2023-09-27T18:48:19.835Z,10.65
2023-09-27T18:50:49.162Z,11.23
2023-09-27T18:53:15.895Z,9.73
2023-09-27T18:55:42.420Z,9.15
2023-09-27T18:58:14.553Z,11.90
2023-09-27T19:00:45.044Z,7.28
2023-09-27T19:03:13.564Z,12.20
2023-09-27T19:05:40.778Z,11.68
2023-09-27T19:08:07.167Z,8.75
2023-09-27T19:10:34.060Z,9.57
2023-09-27T19:13:00.760Z,14.82
2023-09-27T19:15:27.266Z,9.43
2023-09-27T19:17:57.772Z,8.70
2023-09-27T19:20:25.198Z,6.50
2023-09-27T19:22:53.834Z,8.40
2023-09-27T19:25:23.514Z,10.73
2023-09-27T19:27:51.177Z,11.40
2023-09-27T19:30:18.187Z,9.18
2023-09-27T19:32:45.604Z,7.53
2023-09-27T19:35:15.832Z,8.35
2023-09-27T19:37:43.555Z,7.95
2023-09-27T19:40:13.592Z,6.72
2023-09-27T19:42:43.781Z,7.72
2023-09-27T19:45:11.199Z,6.73
2023-09-27T19:47:37.645Z,5.80
2023-09-27T19:50:06.043Z,7.55
2023-09-27T19:52:33.776Z,7.75
2023-09-27T19:55:00.257Z,6.53
2023-09-27T19:57:26.652Z,10.88
2023-09-27T19:59:53.216Z,11.45
2023-09-27T20:02:19.920Z,7.45
2023-09-27T20:04:46.552Z,7.68
2023-09-27T20:07:12.907Z,9.70
2023-09-27T20:09:39.339Z,7.55
2023-09-27T20:12:06.180Z,7.18
2023-09-27T20:14:32.673Z,11.70
2023-09-27T20:16:59.295Z,9.43
2023-09-27T20:19:25.810Z,10.57
2023-09-27T20:21:56.776Z,7.45
2023-09-27T20:24:27.211Z,8.75
2023-09-27T20:26:53.724Z,11.57
2023-09-27T20:29:20.926Z,7.00
2023-09-27T20:31:47.356Z,6.70
2023-09-27T20:34:13.838Z,8.55
2023-09-27T20:36:41.323Z,6.90
2023-09-27T20:39:09.783Z,9.02
2023-09-27T20:41:36.273Z,7.50
2023-09-27T20:44:02.929Z,7.47
2023-09-27T20:46:29.517Z,8.90
2023-09-27T20:48:56.435Z,8.25
2023-09-27T20:51:22.863Z,6.63
2023-09-27T20:53:49.233Z,8.23
2023-09-27T20:56:15.627Z,6.28
2023-09-27T20:58:42.960Z,6.97
2023-09-27T21:01:23.936Z,8.23
2023-09-27T21:03:50.404Z,8.18
2023-09-27T21:06:24.452Z,8.52
2023-09-27T21:08:50.853Z,5.93
2023-09-27T21:11:17.233Z,9.40
2023-09-27T21:13:43.638Z,9.70
2023-09-27T21:16:10.034Z,10.70
2023-09-27T21:18:36.442Z,6.68
2023-09-27T21:21:02.862Z,7.05
2023-09-27T21:23:30.565Z,7.07
2023-09-27T21:25:57.186Z,7.35
2023-09-27T21:28:23.725Z,6.55
2023-09-27T21:30:50.112Z,6.32
2023-09-27T21:33:16.631Z,6.10
2023-09-27T21:35:43.818Z,6.57
2023-09-27T21:38:10.261Z,7.22
2023-09-27T21:40:36.783Z,10.95
2023-09-27T21:43:03.254Z,7.80
2023-09-27T21:45:30.476Z,5.63
2023-09-27T21:47:57.895Z,6.22
2023-09-27T21:50:24.290Z,7.15
2023-09-27T21:52:50.786Z,7.65
2023-09-27T21:55:17.177Z,7.82
2023-09-27T21:57:43.611Z,7.07
2023-09-27T22:00:20.732Z,5.80
2023-09-27T22:02:48.044Z,6.60
2023-09-27T22:05:14.712Z,7.93
2023-09-27T22:07:41.136Z,7.40
2023-09-27T22:10:08.043Z,8.13
2023-09-27T22:12:34.421Z,5.85
2023-09-27T22:15:04.463Z,5.30
2023-09-27T22:17:36.349Z,7.18
2023-09-27T22:20:20.148Z,4.95
2023-09-27T22:22:47.467Z,5.43
2023-09-27T22:25:14.725Z,4.55
2023-09-27T22:27:41.707Z,6.25
2023-09-27T22:30:12.306Z,6.95
2023-09-27T22:32:40.049Z,6.55
2023-09-27T22:35:22.510Z,4.57
2023-09-27T22:37:50.366Z,4.85
2023-09-27T22:40:19.246Z,6.85
2023-09-27T22:42:45.985Z,5.57
2023-09-27T22:45:29.014Z,8.73
2023-09-27T22:47:57.147Z,5.82
2023-09-27T22:50:29.651Z,5.68
2023-09-27T22:53:01.294Z,6.43
2023-09-27T22:55:30.537Z,4.40
2023-09-27T22:57:57.669Z,4.50
2023-09-27T23:00:26.199Z,5.53
2023-09-27T23:02:55.801Z,4.55
2023-09-27T23:05:49.753Z,5.03
2023-09-27T23:08:28.667Z,6.00
2023-09-27T23:10:57.973Z,4.18
2023-09-27T23:13:32.148Z,4.75
2023-09-27T23:16:20.305Z,4.35
2023-09-27T23:18:47.729Z,6.43
2023-09-27T23:21:24.796Z,6.43
2023-09-27T23:23:57.333Z,4.30
2023-09-27T23:26:47.066Z,4.60
2023-09-27T23:29:30.069Z,3.80
2023-09-27T23:31:57.430Z,7.15
2023-09-27T23:34:31.800Z,6.05
2023-09-27T23:37:14.700Z,3.95
2023-09-27T23:39:45.504Z,9.27
2023-09-27T23:42:24.742Z,4.60
2023-09-27T23:45:12.509Z,4.32
2023-09-27T23:47:44.986Z,3.90
2023-09-27T23:50:16.069Z,4.82
2023-09-27T23:52:47.407Z,3.35
2023-09-27T23:55:16.577Z,4.15
2023-09-27T23:57:47.626Z,4.57
